Time;durP1;ratioP1;P1;durP2;ratioP2;P2;SDS_P1;SDS_P2;PMS_P1;PMS_P2;Temp;Humidity;BMP_temperature;BMP_pressure;BME280_temperature;BME280_humidity;BME280_pressure;Samples;Min_cycle;Max_cycle;Signal;HPM_P1;HPM_P2
2022/09/10 00:01:32;;;;;;;12.13;5.32;;;;;;;14.12;100.00;100859.19;5063228;28;20043;-55
2022/09/10 00:03:58;;;;;;;15.52;5.50;;;;;;;14.12;100.00;100863.69;5063407;28;20029;-56
2022/09/10 00:06:26;;;;;;;15.02;5.60;;;;;;;14.13;100.00;100858.16;5083007;28;20028;-55
2022/09/10 00:08:56;;;;;;;9.93;5.45;;;;;;;14.18;100.00;100856.78;5069488;28;20169;-55
2022/09/10 00:11:23;;;;;;;13.20;5.82;;;;;;;14.18;100.00;100862.13;5062673;28;20105;-58
2022/09/10 00:13:48;;;;;;;16.77;6.03;;;;;;;14.18;100.00;100856.78;5062895;28;20029;-58
2022/09/10 00:16:17;;;;;;;14.68;5.60;;;;;;;14.12;100.00;100848.50;5062556;28;20055;-58
2022/09/10 00:18:44;;;;;;;12.45;5.47;;;;;;;14.16;100.00;100850.81;5062602;28;20040;-57
2022/09/10 00:21:12;;;;;;;15.25;5.88;;;;;;;14.15;100.00;100846.50;5062584;28;20365;-59
2022/09/10 00:23:38;;;;;;;13.13;5.22;;;;;;;14.13;100.00;100855.50;5063525;28;20029;-56
2022/09/10 00:26:18;;;;;;;11.55;5.60;;;;;;;14.14;100.00;100840.34;5062516;28;20064;-56
2022/09/10 00:28:43;;;;;;;16.30;5.60;;;;;;;14.16;100.00;100848.97;5062146;28;20025;-59
2022/09/10 00:31:09;;;;;;;15.10;5.57;;;;;;;14.16;100.00;100853.50;5062774;28;20029;-57
2022/09/10 00:33:35;;;;;;;15.27;5.70;;;;;;;14.16;100.00;100859.63;5062629;28;20075;-56
2022/09/10 00:36:02;;;;;;;12.43;5.40;;;;;;;14.16;100.00;100853.50;5062685;28;20060;-56
2022/09/10 00:38:28;;;;;;;12.82;5.35;;;;;;;14.14;100.00;100853.66;5061371;28;20062;-59
2022/09/10 00:41:02;;;;;;;11.70;5.60;;;;;;;14.12;100.00;100853.84;5062410;28;20046;-58
2022/09/10 00:43:53;;;;;;;13.52;5.70;;;;;;;14.16;100.00;100853.50;5063884;28;20131;-56
2022/09/10 00:46:34;;;;;;;11.18;5.70;;;;;;;14.16;100.00;100856.16;5070881;28;20036;-57
2022/09/10 00:49:11;;;;;;;15.07;5.75;;;;;;;14.12;100.00;100848.50;5062446;28;20037;-55
2022/09/10 00:51:37;;;;;;;13.40;5.93;;;;;;;14.11;100.00;100846.84;5061842;28;20062;-58
2022/09/10 00:54:04;;;;;;;15.35;6.32;;;;;;;14.10;100.00;100850.53;5062447;28;20033;-56
2022/09/10 00:56:31;;;;;;;15.40;5.97;;;;;;;14.12;100.00;100853.84;5062086;28;20028;-57
2022/09/10 00:58:56;;;;;;;13.07;6.20;;;;;;;14.10;100.00;100847.88;5066085;28;20113;-57
2022/09/10 01:01:22;;;;;;;14.48;6.22;;;;;;;14.13;100.00;100849.34;5082104;28;20070;-56
2022/09/10 01:03:48;;;;;;;13.73;6.40;;;;;;;14.13;100.00;100854.69;5081857;28;20031;-56
2022/09/10 01:06:14;;;;;;;16.60;6.63;;;;;;;14.15;100.00;100862.50;5082200;28;20039;-59
2022/09/10 01:08:40;;;;;;;13.85;6.53;;;;;;;14.17;100.00;100860.47;5081910;28;20032;-57
2022/09/10 01:11:30;;;;;;;15.68;6.82;;;;;;;14.16;100.00;100864.16;5081799;28;20379;-56
2022/09/10 01:14:23;;;;;;;15.98;6.60;;;;;;;14.16;100.00;100856.16;5073896;28;20037;-57
2022/09/10 01:17:21;;;;;;;13.23;6.88;;;;;;;14.20;100.00;100862.75;5070930;28;20063;-56
2022/09/10 01:20:09;;;;;;;16.58;7.32;;;;;;;14.22;100.00;100866.09;5082041;28;20039;-57
2022/09/10 01:22:56;;;;;;;15.75;7.35;;;;;;;14.23;100.00;100870.41;5082118;28;20157;-55
2022/09/10 01:25:29;;;;;;;16.35;6.80;;;;;;;14.25;100.00;100863.03;5063750;28;20090;-56
2022/09/10 01:27:58;;;;;;;18.17;7.25;;;;;;;14.23;100.00;100859.72;5069071;28;20028;-56
2022/09/10 01:30:32;;;;;;;17.35;7.35;;;;;;;14.24;100.00;100861.38;5081714;28;20035;-57
2022/09/10 01:33:09;;;;;;;18.45;7.25;;;;;;;14.25;100.00;100863.03;5081809;28;20429;-58
2022/09/10 01:36:00;;;;;;;16.42;7.90;;;;;;;14.26;100.00;100859.34;5064288;28;20119;-57
2022/09/10 01:38:30;;;;;;;16.55;7.75;;;;;;;14.25;100.00;100852.34;5061254;28;20029;-57
2022/09/10 01:40:57;;;;;;;17.40;8.15;;;;;;;14.27;100.00;100861.03;5061320;28;20468;-56
2022/09/10 01:43:23;;;;;;;18.67;8.02;;;;;;;14.27;100.00;100855.69;5061803;28;20128;-58
2022/09/10 01:46:19;;;;;;;18.42;7.97;;;;;;;14.29;100.00;100859.00;5061298;28;20076;-56
2022/09/10 01:48:47;;;;;;;19.17;8.23;;;;;;;14.27;100.00;100861.03;5061372;28;20028;-57
2022/09/10 01:51:26;;;;;;;14.05;8.02;;;;;;;14.26;100.00;100862.00;5071743;28;20107;-57
2022/09/10 01:54:23;;;;;;;16.90;8.48;;;;;;;14.29;100.00;100858.16;5061007;28;20044;-57
2022/09/10 01:57:00;;;;;;;18.20;8.73;;;;;;;14.27;100.00;100850.34;5060424;28;20036;-56
2022/09/10 01:59:40;;;;;;;18.00;9.07;;;;;;;14.27;100.00;100855.69;5060948;28;20485;-57
2022/09/10 02:02:13;;;;;;;17.05;8.35;;;;;;;14.27;100.00;100855.69;5058459;28;20025;-57
2022/09/10 02:04:39;;;;;;;;;;;;;;;14.35;100.00;100855.56;5060207;28;20040;-56
2022/09/10 02:07:06;;;;;;;15.55;8.60;;;;;;;14.28;100.00;100852.00;5060618;28;19966;-59
2022/09/10 02:09:32;;;;;;;21.92;8.85;;;;;;;14.27;100.00;100850.34;5060828;28;20032;-58
2022/09/10 02:11:57;;;;;;;21.83;9.52;;;;;;;14.28;100.00;100849.34;5060439;28;20138;-56
2022/09/10 02:14:23;;;;;;;21.10;9.40;;;;;;;14.27;100.00;100853.03;5060657;28;20064;-58
2022/09/10 02:16:57;;;;;;;19.77;9.30;;;;;;;14.23;100.00;100839.22;5060250;28;20021;-57
2022/09/10 02:19:23;;;;;;;20.67;9.48;;;;;;;14.28;100.00;100849.34;5060523;28;20483;-59
2022/09/10 02:21:49;;;;;;;14.55;8.32;;;;;;;14.28;100.00;100841.34;5060437;28;20032;-56
2022/09/10 02:24:14;;;;;;;20.05;9.05;;;;;;;14.27;100.00;100842.34;5060342;28;20020;-56
2022/09/10 02:26:42;;;;;;;19.65;9.20;;;;;;;14.26;100.00;100848.69;5060971;28;20586;-57
2022/09/10 02:29:09;;;;;;;19.90;9.40;;;;;;;14.26;100.00;100838.00;5060214;28;20024;-56
2022/09/10 02:31:35;;;;;;;23.77;9.95;;;;;;;14.27;100.00;100834.34;5060332;28;20025;-56
2022/09/10 02:34:02;;;;;;;22.63;10.00;;;;;;;14.29;100.00;100842.97;5059857;28;20039;-56
2022/09/10 02:36:27;;;;;;;19.85;9.60;;;;;;;14.29;100.00;100842.97;5071486;28;20032;-58
2022/09/10 02:38:55;;;;;;;20.30;10.07;;;;;;;14.24;100.00;100832.03;5080455;28;20055;-56
2022/09/10 02:41:24;;;;;;;18.88;9.63;;;;;;;14.28;100.00;100841.34;5080648;28;20486;-56
2022/09/10 02:43:50;;;;;;;18.88;9.73;;;;;;;14.27;100.00;100839.69;5064071;28;20446;-57
2022/09/10 02:46:16;;;;;;;19.10;9.77;;;;;;;14.28;100.00;100833.34;5060656;28;20287;-56
2022/09/10 02:48:41;;;;;;;16.63;9.82;;;;;;;14.26;100.00;100830.00;5059905;28;20028;-57
2022/09/10 02:51:06;;;;;;;20.20;9.75;;;;;;;14.27;100.00;100837.03;5060004;28;20036;-57
2022/09/10 02:53:32;;;;;;;22.60;10.32;;;;;;;14.29;100.00;100842.97;5080813;28;20024;-55
2022/09/10 02:55:57;;;;;;;18.42;9.52;;;;;;;14.29;100.00;100840.31;5080442;28;20024;-57
2022/09/10 02:58:22;;;;;;;22.75;10.07;;;;;;;14.30;100.00;100839.28;5080406;28;20062;-58
2022/09/10 03:00:48;;;;;;;17.33;10.23;;;;;;;14.31;100.00;100835.63;5080478;28;20024;-55
2022/09/10 03:03:13;;;;;;;17.17;10.43;;;;;;;14.31;100.00;100835.63;5079954;28;20135;-56
2022/09/10 03:05:40;;;;;;;19.02;10.18;;;;;;;14.32;100.00;100839.97;5080251;28;20036;-57
2022/09/10 03:08:06;;;;;;;20.17;10.23;;;;;;;14.32;100.00;100837.28;5059926;28;20252;-56
2022/09/10 03:10:32;;;;;;;18.65;10.98;;;;;;;14.34;100.00;100843.25;5060206;28;20044;-56
2022/09/10 03:12:58;;;;;;;21.20;10.70;;;;;;;14.33;100.00;100838.94;5059599;28;20030;-58
2022/09/10 03:15:24;;;;;;;17.27;10.27;;;;;;;14.32;100.00;100847.97;5060195;28;20066;-57
2022/09/10 03:17:50;;;;;;;19.33;10.85;;;;;;;14.32;100.00;100845.28;5060134;28;20036;-59
2022/09/10 03:20:16;;;;;;;18.10;10.52;;;;;;;14.34;100.00;100840.59;5059599;28;20043;-59
2022/09/10 03:22:42;;;;;;;17.88;10.60;;;;;;;14.35;100.00;100839.56;5059701;28;20029;-57
2022/09/10 03:25:07;;;;;;;20.67;10.75;;;;;;;14.34;100.00;100845.09;5060196;28;20399;-56
2022/09/10 03:27:32;;;;;;;23.85;11.00;;;;;;;14.33;100.00;100841.59;5059673;28;20118;-59
2022/09/10 03:29:58;;;;;;;23.40;11.65;;;;;;;14.35;100.00;100841.41;5060326;28;20037;-56
2022/09/10 03:32:23;;;;;;;23.60;11.98;;;;;;;14.34;100.00;100845.94;5059141;28;20064;-55
2022/09/10 03:34:49;;;;;;;23.27;11.73;;;;;;;14.32;100.00;100831.97;5059928;28;20026;-56
2022/09/10 03:37:15;;;;;;;21.05;12.00;;;;;;;14.34;100.00;100840.59;5077357;28;20024;-55
2022/09/10 03:39:40;;;;;;;22.50;12.32;;;;;;;14.32;100.00;100842.63;5080107;28;20040;-55
2022/09/10 03:42:06;;;;;;;22.75;12.68;;;;;;;14.34;100.00;100840.59;5072198;28;20032;-57
2022/09/10 03:44:32;;;;;;;21.20;12.90;;;;;;;14.34;100.00;100835.25;5059623;28;20126;-56
2022/09/10 03:47:01;;;;;;;26.23;13.40;;;;;;;14.34;100.00;100831.75;5059491;28;20032;-55
2022/09/10 03:49:27;;;;;;;22.08;12.98;;;;;;;14.35;100.00;100830.72;5059444;28;20091;-55
2022/09/10 03:51:52;;;;;;;25.70;13.43;;;;;;;14.37;100.00;100824.19;5059835;28;20040;-57
2022/09/10 03:54:18;;;;;;;22.00;12.88;;;;;;;14.37;100.00;100828.72;5059543;28;20545;-57
2022/09/10 03:56:44;;;;;;;23.55;13.10;;;;;;;14.36;100.00;100827.06;5059766;28;20044;-56
2022/09/10 03:59:12;;;;;;;23.58;13.57;;;;;;;14.38;100.00;100839.22;5059602;28;20035;-56
2022/09/10 04:01:37;;;;;;;21.25;13.45;;;;;;;14.35;100.00;100831.56;5058238;28;20036;-59
2022/09/10 04:04:03;;;;;;;23.20;13.50;;;;;;;14.36;100.00;100830.56;5059959;28;20110;-58
2022/09/10 04:06:31;;;;;;;24.23;13.65;;;;;;;14.36;100.00;100824.41;5064700;28;20143;-57
2022/09/10 04:08:56;;;;;;;22.73;13.85;;;;;;;14.36;100.00;100829.75;5078531;28;20020;-56
2022/09/10 04:11:26;;;;;;;22.80;13.88;;;;;;;14.38;100.00;100820.53;5060323;28;20503;-56
2022/09/10 04:13:51;;;;;;;23.88;13.50;;;;;;;14.36;100.00;100827.88;5060377;28;20116;-57
2022/09/10 04:16:17;;;;;;;20.15;13.10;;;;;;;14.36;100.00;100816.41;5062682;28;20371;-56
2022/09/10 04:18:42;;;;;;;24.85;13.80;;;;;;;14.35;100.00;100815.56;5062527;28;20028;-59
2022/09/10 04:21:07;;;;;;;24.27;14.10;;;;;;;14.36;100.00;100825.22;5063188;28;20040;-56
2022/09/10 04:23:33;;;;;;;23.42;13.50;;;;;;;14.37;100.00;100818.06;5062701;28;20119;-56
2022/09/10 04:25:58;;;;;;;24.52;13.82;;;;;;;14.36;100.00;100822.53;5062856;28;20035;-55
2022/09/10 04:28:24;;;;;;;23.80;13.52;;;;;;;14.38;100.00;100814.38;5062664;28;20028;-57
2022/09/10 04:30:50;;;;;;;24.50;13.90;;;;;;;14.38;100.00;100815.19;5063647;28;20471;-58
2022/09/10 04:33:16;;;;;;;21.45;13.60;;;;;;;14.38;100.00;100815.19;5062700;28;20024;-58
2022/09/10 04:35:42;;;;;;;25.63;13.40;;;;;;;14.38;100.00;100811.69;5067376;28;20031;-56
2022/09/10 04:38:07;;;;;;;23.38;13.43;;;;;;;14.39;100.00;100816.84;5082741;28;20403;-56
2022/09/10 04:40:33;;;;;;;23.45;14.13;;;;;;;14.37;100.00;100818.84;5082461;28;20036;-57
2022/09/10 04:42:59;;;;;;;21.58;14.48;;;;;;;14.37;100.00;100818.06;5082684;28;20044;-56
2022/09/10 04:45:24;;;;;;;20.50;14.35;;;;;;;14.38;100.00;100830.38;5081457;28;20471;-56
2022/09/10 04:47:50;;;;;;;21.90;14.13;;;;;;;14.38;100.00;100820.53;5082943;28;20027;-56
2022/09/10 04:50:16;;;;;;;23.50;13.82;;;;;;;14.38;100.00;100831.22;5073133;28;20035;-56
2022/09/10 04:52:44;;;;;;;24.00;14.30;;;;;;;14.39;100.00;100827.53;5062585;28;20527;-59
2022/09/10 04:55:10;;;;;;;26.85;15.00;;;;;;;14.39;100.00;100826.69;5062258;28;20029;-57
2022/09/10 04:57:36;;;;;;;22.70;14.73;;;;;;;14.38;100.00;100825.03;5061664;28;20511;-58
2022/09/10 05:00:08;;;;;;;22.67;14.55;;;;;;;14.37;100.00;100840.19;5061817;28;20060;-57
2022/09/10 05:02:36;;;;;;;27.80;14.80;;;;;;;14.38;100.00;100828.53;5062127;28;20028;-56
2022/09/10 05:05:01;;;;;;;24.00;14.85;;;;;;;14.39;100.00;100832.84;5069822;28;20522;-56
2022/09/10 05:07:26;;;;;;;22.35;14.07;;;;;;;14.39;100.00;100835.53;5082343;28;20032;-56
2022/09/10 05:09:51;;;;;;;22.60;13.73;;;;;;;14.38;100.00;100836.53;5081746;28;20513;-59
2022/09/10 05:12:18;;;;;;;24.98;14.07;;;;;;;14.39;100.00;100834.69;5082108;28;20077;-57
2022/09/10 05:14:44;;;;;;;22.05;14.50;;;;;;;14.39;100.00;100832.00;5082176;28;20036;-56
2022/09/10 05:17:10;;;;;;;25.67;14.90;;;;;;;14.40;100.00;100820.31;5080099;28;20568;-56
2022/09/10 05:19:35;;;;;;;22.58;14.57;;;;;;;14.43;100.00;100832.47;5063585;28;20036;-56
2022/09/10 05:22:00;;;;;;;25.00;15.00;;;;;;;14.45;100.00;100830.47;5082067;28;20032;-56
2022/09/10 05:24:26;;;;;;;28.58;15.52;;;;;;;14.45;100.00;100836.59;5075557;28;20124;-57
2022/09/10 05:26:51;;;;;;;25.65;16.15;;;;;;;14.47;100.00;100844.44;5061491;28;20465;-58
2022/09/10 05:29:17;;;;;;;25.80;15.77;;;;;;;14.47;100.00;100825.75;5062384;28;20025;-57
2022/09/10 05:31:43;;;;;;;25.65;16.08;;;;;;;14.47;100.00;100825.75;5081438;28;20421;-57
2022/09/10 05:34:08;;;;;;;28.45;16.10;;;;;;;14.49;100.00;100826.38;5076279;28;20072;-56
2022/09/10 05:36:34;;;;;;;27.50;16.65;;;;;;;14.49;100.00;100831.72;5061414;28;20430;-58
2022/09/10 05:39:01;;;;;;;28.52;17.45;;;;;;;14.50;100.00;100833.38;5061291;28;20032;-57
2022/09/10 05:41:27;;;;;;;25.67;17.23;;;;;;;14.52;100.00;100836.69;5061109;28;20028;-57
2022/09/10 05:43:52;;;;;;;30.85;17.38;;;;;;;14.54;100.00;100829.31;5060413;28;20564;-57
2022/09/10 05:46:18;;;;;;;27.42;17.40;;;;;;;14.53;100.00;100827.66;5061613;28;20032;-55
2022/09/10 05:48:43;;;;;;;30.45;17.52;;;;;;;14.56;100.00;100832.63;5060782;28;20032;-56
2022/09/10 05:51:08;;;;;;;25.20;17.35;;;;;;;14.55;100.00;100830.97;5061052;28;20410;-56
2022/09/10 05:53:34;;;;;;;26.70;17.50;;;;;;;14.58;100.00;100827.09;5061000;28;20475;-57
2022/09/10 05:55:59;;;;;;;25.25;17.55;;;;;;;14.59;100.00;100832.25;5060244;28;20036;-58
2022/09/10 05:58:26;;;;;;;27.83;17.88;;;;;;;14.61;100.00;100832.06;5060739;28;20032;-55
2022/09/10 06:00:53;;;;;;;27.48;18.77;;;;;;;14.60;100.00;100827.75;5079097;28;20473;-55
2022/09/10 06:03:19;;;;;;;29.02;18.58;;;;;;;14.61;100.00;100832.06;5077751;28;20063;-56
2022/09/10 06:05:51;;;;;;;27.55;18.63;;;;;;;14.60;100.00;100825.91;5080715;28;20090;-56
2022/09/10 06:08:20;;;;;;;27.50;17.90;;;;;;;14.61;100.00;100835.53;5081339;28;20028;-56
2022/09/10 06:11:15;;;;;;;24.45;17.63;;;;;;;14.64;100.00;100829.00;5080544;28;20116;-58
2022/09/10 06:13:42;;;;;;;24.35;17.52;;;;;;;14.61;100.00;100835.53;5058751;28;20050;-56
2022/09/10 06:16:08;;;;;;;25.70;18.23;;;;;;;14.61;100.00;100832.06;5080027;28;20785;-57
2022/09/10 06:18:33;;;;;;;25.02;17.17;;;;;;;14.63;100.00;100838.88;5074331;28;20059;-56
2022/09/10 06:21:07;;;;;;;26.40;18.30;;;;;;;14.62;100.00;100834.56;5080560;28;20360;-57
2022/09/10 06:23:34;;;;;;;27.10;18.88;;;;;;;14.62;100.00;100837.22;5080635;28;20040;-56
2022/09/10 06:26:07;;;;;;;25.10;18.52;;;;;;;14.57;100.00;100828.13;5080549;28;20368;-58
2022/09/10 06:28:32;;;;;;;25.30;18.45;;;;;;;14.61;100.00;100840.88;5079138;28;20024;-56
2022/09/10 06:30:58;;;;;;;23.90;17.80;;;;;;;14.62;100.00;100841.72;5080175;28;20081;-57
2022/09/10 06:33:24;;;;;;;28.40;19.35;;;;;;;14.65;100.00;100852.00;5071023;28;20032;-56
2022/09/10 06:35:57;;;;;;;26.10;18.33;;;;;;;14.64;100.00;100851.19;5065866;28;20609;-57
2022/09/10 06:38:23;;;;;;;28.45;20.05;;;;;;;14.61;100.00;100843.56;5079683;28;20036;-58
2022/09/10 06:40:53;;;;;;;31.13;20.23;;;;;;;14.67;100.00;100855.34;5081094;28;20036;-55
2022/09/10 06:43:20;;;;;;;28.33;20.73;;;;;;;14.63;100.00;100851.38;5080073;28;20075;-56
2022/09/10 06:45:45;;;;;;;28.17;20.38;;;;;;;14.62;100.00;100850.56;5080332;28;20129;-56
2022/09/10 06:48:10;;;;;;;26.45;19.85;;;;;;;14.62;100.00;100853.25;5075274;28;20503;-56
2022/09/10 06:50:36;;;;;;;28.13;19.70;;;;;;;14.64;100.00;100850.34;5080195;28;20124;-56
2022/09/10 06:53:02;;;;;;;31.25;20.58;;;;;;;14.63;100.00;100854.88;5079901;28;20035;-56
2022/09/10 06:55:27;;;;;;;29.40;20.85;;;;;;;14.66;100.00;100851.81;5080500;28;20073;-56
2022/09/10 06:57:52;;;;;;;29.17;20.48;;;;;;;14.66;100.00;100857.16;5080346;28;20024;-58
2022/09/10 07:00:17;;;;;;;28.95;21.15;;;;;;;14.68;100.00;100859.66;5078034;28;20028;-57
2022/09/10 07:02:43;;;;;;;28.55;21.05;;;;;;;14.70;100.00;100859.47;5078030;28;20040;-57
2022/09/10 07:05:08;;;;;;;28.38;21.25;;;;;;;14.70;100.00;100848.78;5061025;28;20033;-55
2022/09/10 07:07:34;;;;;;;28.95;20.50;;;;;;;14.72;100.00;100857.44;5059745;28;20107;-57
2022/09/10 07:10:00;;;;;;;31.35;21.70;;;;;;;14.74;100.00;100852.72;5059701;28;20031;-56
2022/09/10 07:12:25;;;;;;;27.83;20.13;;;;;;;14.78;100.00;100862.03;5060310;28;20498;-57
2022/09/10 07:14:51;;;;;;;26.65;20.10;;;;;;;14.77;100.00;100865.72;5059912;28;20377;-58
2022/09/10 07:17:17;;;;;;;26.92;19.00;;;;;;;14.75;100.00;100859.78;5059965;28;20032;-56
2022/09/10 07:19:42;;;;;;;23.38;17.25;;;;;;;14.75;100.00;100862.44;5060070;28;20043;-56
2022/09/10 07:22:07;;;;;;;24.52;17.33;;;;;;;14.75;100.00;100865.09;5060143;28;20039;-56
2022/09/10 07:24:33;;;;;;;23.30;17.38;;;;;;;14.75;100.00;100868.59;5059912;28;20081;-56
2022/09/10 07:26:58;;;;;;;25.00;17.65;;;;;;;14.77;100.00;100868.41;5059592;28;20383;-59
2022/09/10 07:29:24;;;;;;;23.60;18.35;;;;;;;14.76;100.00;100874.75;5059584;28;20035;-55
2022/09/10 07:31:49;;;;;;;24.27;17.90;;;;;;;14.75;100.00;100862.44;5059659;28;20908;-56
2022/09/10 07:34:15;;;;;;;24.55;18.02;;;;;;;14.76;100.00;100872.09;5063927;28;20528;-56
2022/09/10 07:36:40;;;;;;;21.27;17.45;;;;;;;14.76;100.00;100875.56;5061644;28;20032;-56
2022/09/10 07:39:05;;;;;;;23.42;18.27;;;;;;;14.79;100.00;100879.72;5059312;28;20041;-57
2022/09/10 07:41:33;;;;;;;23.60;17.40;;;;;;;14.85;100.00;100878.94;5062469;28;20380;-56
2022/09/10 07:43:58;;;;;;;21.55;17.85;;;;;;;14.85;100.00;100878.94;5079866;28;20506;-59
2022/09/10 07:46:26;;;;;;;23.60;18.65;;;;;;;14.88;100.00;100883.09;5078544;28;20028;-56
2022/09/10 07:48:55;;;;;;;23.90;18.95;;;;;;;14.96;100.00;100879.47;5081510;28;20036;-57
2022/09/10 07:51:21;;;;;;;24.40;19.70;;;;;;;14.95;100.00;100885.84;5083455;28;20115;-55
2022/09/10 07:53:52;;;;;;;25.13;20.23;;;;;;;14.98;100.00;100883.63;5083911;28;20509;-56
2022/09/10 07:56:17;;;;;;;23.50;19.60;;;;;;;15.02;100.00;100884.06;5083638;28;20032;-57
2022/09/10 07:58:43;;;;;;;25.65;20.95;;;;;;;15.04;100.00;100888.19;5083554;28;20537;-56
2022/09/10 08:01:12;;;;;;;24.15;21.55;;;;;;;15.11;100.00;100896.28;5077173;28;20037;-57
2022/09/10 08:03:38;;;;;;;27.67;22.23;;;;;;;15.11;100.00;100898.97;5063261;28;20024;-58
2022/09/10 08:06:06;;;;;;;27.38;22.83;;;;;;;15.14;100.00;100900.41;5063399;28;20506;-56
2022/09/10 08:08:34;;;;;;;26.20;22.83;;;;;;;15.18;100.00;100905.19;5063333;28;20043;-59
2022/09/10 08:11:12;;;;;;;25.70;22.25;;;;;;;15.26;100.00;100906.06;5063883;28;20040;-57
2022/09/10 08:13:44;;;;;;;27.58;22.45;;;;;;;15.27;100.00;100905.88;5062846;28;20553;-56
2022/09/10 08:16:12;;;;;;;24.35;21.77;;;;;;;15.33;100.00;100912.28;5063133;28;20046;-56
2022/09/10 08:18:38;;;;;;;26.25;21.33;;;;;;;15.38;100.00;100915.22;5062826;28;20049;-57
2022/09/10 08:21:06;;;;;;;25.08;22.30;;;;;;;15.38;100.00;100915.22;5062435;28;20415;-57
2022/09/10 08:23:31;;;;;;;25.33;22.40;;;;;;;15.39;100.00;100918.75;5062772;28;20143;-57
2022/09/10 08:25:57;;;;;;;28.50;22.48;;;;;;;15.38;100.00;100925.91;5062748;28;20115;-55
2022/09/10 08:28:22;;;;;;;28.08;22.45;;;;;;;15.39;100.00;100930.22;5062356;28;20056;-57
2022/09/10 08:31:15;;;;;;;27.15;22.02;;;;;;;15.45;100.00;100932.13;5062548;28;20043;-58
2022/09/10 08:33:40;;;;;;;26.25;21.70;;;;;;;15.44;100.00;100933.16;5058460;28;20051;-58
2022/09/10 08:36:09;;;;;;;25.65;21.00;;;;;;;15.53;100.00;100938.38;5071430;28;20035;-57
2022/09/10 08:38:39;;;;;;;26.83;21.50;;;;;;;15.55;100.00;100941.69;5082412;28;20031;-57
2022/09/10 08:41:12;;;;;;;23.13;19.75;;;;;;;15.63;100.00;100938.06;5076060;28;20063;-57
2022/09/10 08:43:51;;;;;;;22.63;19.55;;;;;;;15.62;100.00;100942.56;5062280;28;20407;-56
2022/09/10 08:46:25;;;;;;;22.77;18.70;;;;;;;15.68;100.00;100944.47;5062527;28;20028;-56
2022/09/10 08:49:13;;;;;;;20.70;17.55;;;;;;;15.70;100.00;100955.78;5061936;28;20609;-57
2022/09/10 08:51:47;;;;;;;20.23;17.17;;;;;;;15.70;100.00;100955.78;5080017;28;20036;-56
2022/09/10 08:54:18;;;;;;;21.60;17.05;;;;;;;15.65;100.00;100946.72;5064505;28;20036;-57
2022/09/10 08:56:46;;;;;;;20.13;16.42;;;;;;;15.64;100.00;100961.91;5080727;28;20036;-57
2022/09/10 08:59:23;;;;;;;19.58;16.50;;;;;;;15.64;100.00;100961.91;5081911;28;20032;-56
2022/09/10 09:02:00;;;;;;;20.75;15.90;;;;;;;15.59;100.00;100953.63;5080467;28;20133;-57
2022/09/10 09:04:38;;;;;;;19.60;16.15;;;;;;;15.56;100.00;100965.56;5062767;28;20028;-57
2022/09/10 09:07:11;;;;;;;21.48;17.63;;;;;;;15.52;100.00;100968.78;5082388;28;20028;-59
2022/09/10 09:09:36;;;;;;;20.73;16.85;;;;;;;15.50;100.00;100966.31;5063325;28;20503;-56
2022/09/10 09:12:06;;;;;;;23.65;16.27;;;;;;;15.52;100.00;100968.78;5062566;28;20024;-55
2022/09/10 09:14:40;;;;;;;22.20;17.38;;;;;;;15.52;100.00;100968.78;5061753;28;20028;-56
2022/09/10 09:17:25;;;;;;;22.90;17.38;;;;;;;15.50;100.00;100970.84;5061820;28;20028;-56
2022/09/10 09:20:21;;;;;;;25.13;17.63;;;;;;;15.58;100.00;100970.69;5069272;28;20764;-59
2022/09/10 09:23:00;;;;;;;23.13;18.48;;;;;;;15.55;100.00;100968.41;5076725;28;20029;-56
2022/09/10 09:25:43;;;;;;;22.27;17.95;;;;;;;15.60;100.00;100974.03;5061425;28;20038;-56
2022/09/10 09:28:32;;;;;;;25.30;18.90;;;;;;;15.69;100.00;100975.53;5061420;28;20484;-59
2022/09/10 09:31:04;;;;;;;25.77;18.67;;;;;;;15.71;100.00;100978.84;5044330;28;20040;-59
2022/09/10 09:33:31;;;;;;;26.27;19.67;;;;;;;15.74;100.00;100978.44;5062173;28;20137;-56
2022/09/10 09:36:01;;;;;;;24.52;18.60;;;;;;;15.81;100.00;100973.16;5061781;28;20032;-57
2022/09/10 09:38:37;;;;;;;24.27;18.95;;;;;;;15.89;100.00;100977.53;5064357;28;20024;-56
2022/09/10 09:41:15;;;;;;;23.35;18.50;;;;;;;15.93;100.00;100978.84;5081451;28;20082;-56
2022/09/10 09:43:50;;;;;;;24.48;17.77;;;;;;;15.97;100.00;100977.44;5064798;28;20543;-57
2022/09/10 09:46:20;;;;;;;21.55;17.13;;;;;;;16.03;100.00;100975.81;5061342;28;20415;-56
2022/09/10 09:48:47;;;;;;;21.52;18.27;;;;;;;16.03;100.00;100975.00;5060818;28;20029;-58
2022/09/10 09:51:19;;;;;;;22.70;17.80;;;;;;;16.05;100.00;100980.97;5061611;28;20067;-57
2022/09/10 09:53:48;;;;;;;23.83;17.38;;;;;;;16.06;100.00;100974.59;5067824;28;20497;-57
2022/09/10 09:56:29;;;;;;;22.60;17.40;;;;;;;16.11;100.00;100982.88;5062762;28;20422;-57
2022/09/10 09:58:55;;;;;;;21.77;17.00;;;;;;;16.06;100.00;100978.13;5063614;28;20037;-56
2022/09/10 10:01:23;;;;;;;23.67;16.40;;;;;;;16.08;100.00;100972.59;5061064;28;20024;-56
2022/09/10 10:04:01;;;;;;;20.33;15.35;;;;;;;16.12;100.00;100971.16;5060868;28;20261;-59
2022/09/10 10:06:32;;;;;;;21.75;15.27;;;;;;;16.08;100.00;100967.25;5080878;28;20451;-56
2022/09/10 10:09:05;;;;;;;23.58;16.08;;;;;;;16.16;100.00;100964.41;5081226;28;20032;-55
2022/09/10 10:11:49;;;;;;;;;;;;;;;16.30;100.00;100972.50;5078857;28;20032;-56
2022/09/10 10:14:18;;;;;;;23.05;17.52;;;;;;;16.32;100.00;100982.00;5080871;28;19990;-57
2022/09/10 10:16:47;;;;;;;20.73;16.83;;;;;;;16.38;100.00;100993.78;5080523;28;20043;-59
2022/09/10 10:19:36;;;;;;;22.60;16.80;;;;;;;16.48;100.00;100994.22;5080598;28;20043;-59
2022/09/10 10:22:17;;;;;;;22.40;17.05;;;;;;;16.60;100.00;100996.34;5080701;28;20077;-56
2022/09/10 10:24:44;;;;;;;19.88;16.05;;;;;;;16.58;100.00;100987.69;5079462;28;20032;-56
2022/09/10 10:27:18;;;;;;;19.55;15.25;;;;;;;16.65;100.00;100993.91;5060092;28;20601;-59
2022/09/10 10:29:56;;;;;;;19.02;15.63;;;;;;;16.66;100.00;101000.91;5060384;28;20107;-56
2022/09/10 10:32:29;;;;;;;19.90;14.88;;;;;;;16.75;100.00;100989.03;5060674;28;20131;-59
2022/09/10 10:35:10;;;;;;;20.13;15.25;;;;;;;16.72;100.00;100989.41;5059910;28;20036;-57
2022/09/10 10:37:59;;;;;;;21.10;15.48;;;;;;;16.76;100.00;100996.03;5067370;28;20040;-58
2022/09/10 10:40:42;;;;;;;19.77;13.57;;;;;;;16.70;100.00;100991.47;5080442;28;20067;-57
2022/09/10 10:43:46;;;;;;;19.08;14.18;;;;;;;16.78;100.00;100999.31;5080276;28;20052;-58
2022/09/10 10:46:19;;;;;;;17.48;13.25;;;;;;;16.69;100.00;101003.22;5078157;28;20040;-57
2022/09/10 10:49:03;;;;;;;19.17;12.60;;;;;;;16.73;100.00;101012.47;5080817;28;20036;-55
2022/09/10 10:51:55;;;;;;;17.38;11.73;;;;;;;16.66;100.00;101006.28;5080245;28;20032;-57
2022/09/10 10:54:42;;;;;;;16.40;10.68;;;;;;;16.68;100.00;101009.59;5080498;28;20036;-56
2022/09/10 10:57:44;;;;;;;17.60;11.23;;;;;;;16.64;100.00;101016.38;5080642;28;20028;-56
2022/09/10 11:00:16;;;;;;;17.85;11.30;;;;;;;16.62;100.00;101021.91;5078182;28;20036;-56
2022/09/10 11:02:56;;;;;;;15.93;10.55;;;;;;;16.66;100.00;101019.66;5059872;28;20419;-57
2022/09/10 11:05:31;;;;;;;21.10;10.75;;;;;;;16.56;100.00;101017.34;5061782;28;20077;-55
2022/09/10 11:08:07;;;;;;;16.25;10.23;;;;;;;16.53;100.00;101007.84;5079998;28;20032;-55
2022/09/10 11:10:44;;;;;;;20.20;10.35;;;;;;;16.45;100.00;101013.38;5079993;28;20031;-56
2022/09/10 11:13:44;;;;;;;15.32;9.65;;;;;;;16.41;100.00;101009.44;5079728;28;20040;-56
2022/09/10 11:16:19;;;;;;;14.90;9.63;;;;;;;16.36;100.00;101020.72;5041198;28;20087;-56
2022/09/10 11:19:01;;;;;;;17.98;9.98;;;;;;;16.32;100.00;101027.47;5080254;28;20032;-58